createdAt,value
2018-10-18T00:00:13.227Z,99365.34
2018-10-18T00:02:41.503Z,99363.83
2018-10-18T00:05:10.458Z,99362.82
2018-10-18T00:07:38.955Z,99361.90
2018-10-18T00:10:08.034Z,99366.30
2018-10-18T00:12:37.264Z,99364.75
2018-10-18T00:15:06.863Z,99359.66
2018-10-18T00:17:49.907Z,99358.96
2018-10-18T00:20:18.422Z,99364.03
2018-10-18T00:25:30.943Z,99365.45
2018-10-18T00:28:00.364Z,99368.95
2018-10-18T00:30:28.784Z,99366.69
2018-10-18T00:32:57.288Z,99362.25
2018-10-18T00:35:25.739Z,99370.21
2018-10-18T00:37:54.205Z,99370.06
2018-10-18T00:40:22.660Z,99361.67
2018-10-18T00:42:51.135Z,99361.97
2018-10-18T00:45:19.625Z,99361.37
2018-10-18T00:47:48.136Z,99361.70
2018-10-18T00:50:16.685Z,99365.91
2018-10-18T00:52:45.194Z,99363.15
2018-10-18T00:55:13.957Z,99362.67
2018-10-18T00:57:42.595Z,99358.62
2018-10-18T01:00:11.872Z,99361.39
2018-10-18T01:02:40.411Z,99366.25
2018-10-18T01:05:09.046Z,99368.88
2018-10-18T01:07:37.667Z,99365.60
2018-10-18T01:10:06.171Z,99367.20
2018-10-18T01:12:34.668Z,99371.78
2018-10-18T01:15:03.195Z,99364.80
2018-10-18T01:17:32.536Z,99362.27
2018-10-18T01:20:01.014Z,99368.31
2018-10-18T01:22:29.470Z,99372.89
2018-10-18T01:24:57.930Z,99368.33
2018-10-18T01:27:26.400Z,99369.70
2018-10-18T01:29:54.872Z,99369.95
2018-10-18T01:32:23.817Z,99368.05
2018-10-18T01:34:52.348Z,99369.37
2018-10-18T01:37:21.446Z,99366.59
2018-10-18T01:39:50.019Z,99368.80
2018-10-18T01:42:18.643Z,99371.22
2018-10-18T01:44:47.148Z,99366.54
2018-10-18T01:47:15.592Z,99361.93
2018-10-18T01:49:44.103Z,99363.20
2018-10-18T01:52:13.202Z,99357.73
2018-10-18T01:54:41.656Z,99363.33
2018-10-18T01:57:10.624Z,99354.31
2018-10-18T01:59:39.137Z,99349.13
2018-10-18T02:02:07.681Z,99354.90
2018-10-18T02:04:36.123Z,99351.26
2018-10-18T02:07:04.594Z,99355.60
2018-10-18T02:09:33.103Z,99360.61
2018-10-18T02:12:01.561Z,99353.11
2018-10-18T02:14:30.727Z,99354.48
2018-10-18T02:16:59.160Z,99352.14
2018-10-18T02:19:27.648Z,99348.91
2018-10-18T02:21:56.106Z,99352.18
2018-10-18T02:24:24.644Z,99345.44
2018-10-18T02:26:53.788Z,99352.59
2018-10-18T02:29:22.275Z,99352.52
2018-10-18T02:31:50.875Z,99348.70
2018-10-18T02:34:19.346Z,98508.06
2018-10-18T02:36:47.850Z,99352.16
2018-10-18T02:39:16.324Z,99344.33
2018-10-18T02:41:44.752Z,99355.91
2018-10-18T02:44:13.315Z,99343.94
2018-10-18T02:46:41.808Z,99347.05
2018-10-18T02:49:10.604Z,99342.68
2018-10-18T02:51:39.054Z,99349.54
2018-10-18T02:54:08.085Z,99345.83
2018-10-18T02:56:36.531Z,99343.92
2018-10-18T02:59:05.426Z,99347.17
2018-10-18T03:01:33.935Z,99346.00
2018-10-18T03:04:02.388Z,99343.16
2018-10-18T03:06:31.081Z,99352.67
2018-10-18T03:08:59.549Z,99355.44
2018-10-18T03:11:28.003Z,99354.12
2018-10-18T03:13:56.651Z,99352.09
2018-10-18T03:16:25.074Z,99354.27
2018-10-18T03:18:53.548Z,99357.27
2018-10-18T03:21:22.111Z,99353.45
2018-10-18T03:23:51.495Z,99349.59
2018-10-18T03:26:20.063Z,99355.89
2018-10-18T03:28:48.574Z,99357.57
2018-10-18T03:31:17.040Z,99357.55
2018-10-18T03:33:45.660Z,99359.72
2018-10-18T03:36:14.400Z,99359.95
2018-10-18T03:38:43.142Z,99356.13
2018-10-18T03:41:11.940Z,99362.64
2018-10-18T03:43:40.464Z,99363.61
2018-10-18T03:46:09.090Z,99366.14
2018-10-18T03:48:38.480Z,99360.87
2018-10-18T03:51:07.070Z,99364.22
2018-10-18T03:53:35.816Z,99366.76
2018-10-18T03:56:04.963Z,99362.90
2018-10-18T03:58:33.573Z,99369.52
2018-10-18T04:01:02.038Z,99365.81
2018-10-18T04:03:30.620Z,99368.21
2018-10-18T04:05:59.401Z,99368.11
2018-10-18T04:08:27.760Z,99368.02
2018-10-18T04:10:56.247Z,99371.60
2018-10-18T04:13:25.306Z,99371.61
2018-10-18T04:15:56.794Z,99369.22
2018-10-18T04:18:25.261Z,99370.52
2018-10-18T04:20:53.767Z,99380.52
2018-10-18T04:23:30.670Z,99378.24
2018-10-18T04:25:59.741Z,99365.47
2018-10-18T04:28:28.195Z,99373.31
2018-10-18T04:30:59.123Z,99376.79
2018-10-18T04:33:27.600Z,99365.38
2018-10-18T04:35:56.120Z,99372.59
2018-10-18T04:38:25.574Z,99372.93
2018-10-18T04:40:54.029Z,99372.92
2018-10-18T04:43:22.472Z,99381.08
2018-10-18T04:45:51.445Z,99378.38
2018-10-18T04:48:19.976Z,99378.13
2018-10-18T04:50:48.374Z,99389.08
2018-10-18T04:53:16.826Z,99393.27
2018-10-18T04:55:45.345Z,99392.94
2018-10-18T04:58:13.885Z,99394.70
2018-10-18T05:00:42.402Z,99389.50
2018-10-18T05:03:10.874Z,99395.30
2018-10-18T05:05:48.783Z,99400.93
2018-10-18T05:08:17.331Z,99386.51
2018-10-18T05:10:45.777Z,99407.33
2018-10-18T05:13:14.290Z,99407.97
2018-10-18T05:15:44.509Z,99408.34
2018-10-18T05:18:13.910Z,99408.82
2018-10-18T05:20:42.452Z,99407.14
2018-10-18T05:23:11.561Z,99411.06
2018-10-18T05:25:40.405Z,99410.44
2018-10-18T05:28:08.849Z,99409.50
2018-10-18T05:30:37.347Z,99419.23
2018-10-18T05:33:06.146Z,99420.67
2018-10-18T05:35:34.807Z,99425.55
2018-10-18T05:38:03.495Z,99417.09
2018-10-18T05:40:32.719Z,99424.67
2018-10-18T05:43:01.447Z,99429.18
2018-10-18T05:45:30.209Z,99430.97
2018-10-18T05:47:58.701Z,99431.56
2018-10-18T05:50:27.102Z,99437.20
2018-10-18T05:52:56.096Z,99442.44
2018-10-18T05:55:24.575Z,99441.84
2018-10-18T05:57:53.791Z,99447.03
2018-10-18T06:00:23.110Z,99442.31
2018-10-18T06:02:52.556Z,99449.61
2018-10-18T06:05:21.787Z,99453.00
2018-10-18T06:07:51.200Z,99449.86
2018-10-18T06:10:31.546Z,99455.62
2018-10-18T06:13:00.888Z,99463.09
2018-10-18T06:15:29.594Z,99460.94
2018-10-18T06:17:58.079Z,99462.77
2018-10-18T06:20:26.565Z,99471.95
2018-10-18T06:22:55.155Z,99469.98
2018-10-18T06:25:24.008Z,99475.28
2018-10-18T06:27:53.210Z,99480.00
2018-10-18T06:30:21.625Z,99477.10
2018-10-18T06:32:50.755Z,99486.97
2018-10-18T06:35:19.244Z,99490.94
2018-10-18T06:37:47.718Z,99492.33
2018-10-18T06:40:17.272Z,99491.64
2018-10-18T06:42:45.787Z,99493.17
2018-10-18T06:45:15.688Z,99494.99
2018-10-18T06:47:44.591Z,99500.92
2018-10-18T06:50:15.172Z,99498.14
2018-10-18T06:52:44.420Z,99499.72
2018-10-18T06:55:13.058Z,99507.06
2018-10-18T06:57:42.287Z,99511.77
2018-10-18T07:00:20.741Z,99508.65
2018-10-18T07:02:49.464Z,99510.80
2018-10-18T07:05:18.030Z,99511.38
2018-10-18T07:07:46.591Z,99507.01
2018-10-18T07:10:15.068Z,99509.98
2018-10-18T07:12:43.695Z,99508.05
2018-10-18T07:15:13.802Z,99509.80
2018-10-18T07:17:42.973Z,99510.81
2018-10-18T07:20:12.924Z,99512.83
2018-10-18T07:22:41.724Z,99512.88
2018-10-18T07:25:11.834Z,99514.09
2018-10-18T07:27:41.151Z,99516.53
2018-10-18T07:30:10.932Z,99513.40
2018-10-18T07:32:39.663Z,99509.42
2018-10-18T07:35:09.501Z,99509.92
2018-10-18T07:37:38.235Z,99518.88
2018-10-18T07:40:08.663Z,99523.56
2018-10-18T07:42:37.129Z,99518.75
2018-10-18T07:45:07.004Z,99517.62
2018-10-18T07:47:35.955Z,99528.72
2018-10-18T07:50:04.641Z,99529.69
2018-10-18T07:52:33.175Z,99525.39
2018-10-18T07:55:01.687Z,99527.11
2018-10-18T07:57:30.268Z,99519.63
2018-10-18T07:59:58.890Z,99523.50
2018-10-18T08:02:27.458Z,99520.80
2018-10-18T08:04:55.883Z,99524.77
2018-10-18T08:07:24.379Z,99523.93
2018-10-18T08:09:52.901Z,99518.11
2018-10-18T08:12:21.522Z,99518.11
2018-10-18T08:14:49.975Z,99517.11
2018-10-18T08:18:43.998Z,99517.26
2018-10-18T08:21:12.983Z,99512.86
2018-10-18T08:23:41.460Z,99513.17
2018-10-18T08:26:10.848Z,99521.66
2018-10-18T08:28:39.308Z,99521.36
2018-10-18T08:31:07.914Z,99522.56
2018-10-18T08:33:36.357Z,99526.50
2018-10-18T08:36:04.798Z,99519.72
2018-10-18T08:38:34.316Z,99525.12
2018-10-18T08:41:02.750Z,99530.80
2018-10-18T08:43:31.265Z,99525.76
2018-10-18T08:46:00.907Z,99533.11
2018-10-18T08:48:29.380Z,99534.13
2018-10-18T08:50:57.856Z,99532.56
2018-10-18T08:53:26.416Z,99531.77
2018-10-18T08:55:54.840Z,99534.47
2018-10-18T08:58:23.474Z,99538.16
2018-10-18T09:00:52.766Z,99528.00
2018-10-18T09:03:21.297Z,99526.66
2018-10-18T09:05:49.962Z,99524.28
2018-10-18T09:08:18.407Z,99522.72
2018-10-18T09:10:47.496Z,99523.36
2018-10-18T09:13:16.088Z,99525.91
2018-10-18T09:15:49.522Z,99526.16
2018-10-18T09:18:18.148Z,99526.56
2018-10-18T09:20:46.596Z,99526.53
2018-10-18T09:23:15.063Z,99519.08
2018-10-18T09:25:45.016Z,99517.45
2018-10-18T09:28:13.595Z,99526.36
2018-10-18T09:30:42.087Z,99518.48
2018-10-18T09:33:10.929Z,99515.23
2018-10-18T09:35:40.432Z,99514.80
2018-10-18T09:38:08.933Z,99513.42
2018-10-18T09:40:37.380Z,99515.61
2018-10-18T09:43:05.978Z,99522.73
2018-10-18T09:45:34.558Z,99516.45
2018-10-18T09:48:02.992Z,99522.95
2018-10-18T09:50:31.644Z,99520.94
2018-10-18T09:53:00.091Z,99528.77
2018-10-18T09:55:28.638Z,99526.55
2018-10-18T09:57:57.179Z,99530.44
2018-10-18T10:00:31.017Z,99524.21
2018-10-18T10:03:04.707Z,99517.74
2018-10-18T10:05:34.102Z,99526.08
2018-10-18T10:08:02.531Z,99525.26
2018-10-18T10:10:31.248Z,99529.81
2018-10-18T10:13:00.339Z,99514.21
2018-10-18T10:15:28.850Z,99517.92
2018-10-18T10:17:57.274Z,99517.84
2018-10-18T10:20:25.742Z,99513.77
2018-10-18T10:22:54.424Z,99515.37
2018-10-18T10:25:22.900Z,99517.36
2018-10-18T10:27:51.542Z,99507.39
2018-10-18T10:30:20.139Z,99509.46
2018-10-18T10:32:48.511Z,99499.06
2018-10-18T10:35:17.381Z,99495.41
2018-10-18T10:37:45.792Z,99493.89
2018-10-18T10:40:14.438Z,99493.73
2018-10-18T10:42:43.082Z,99489.68
2018-10-18T10:45:12.512Z,99479.47
2018-10-18T10:47:40.939Z,99483.81
2018-10-18T10:50:11.312Z,99482.58
2018-10-18T10:52:40.112Z,99483.54
2018-10-18T10:55:11.248Z,99482.37
2018-10-18T10:57:39.721Z,99469.88
2018-10-18T11:00:08.382Z,99481.78
2018-10-18T11:02:36.914Z,99480.06
2018-10-18T11:05:05.993Z,99477.63
2018-10-18T11:07:34.744Z,99474.56
2018-10-18T11:10:03.200Z,99485.14
2018-10-18T11:12:32.795Z,99479.28
2018-10-18T11:15:01.619Z,99474.72
2018-10-18T11:17:30.037Z,99466.55
2018-10-18T11:19:59.171Z,99470.23
2018-10-18T11:22:27.730Z,99463.27
2018-10-18T11:24:56.190Z,99455.89
2018-10-18T11:27:24.636Z,99458.00
2018-10-18T11:29:53.669Z,99462.09
2018-10-18T11:32:22.137Z,99455.55
2018-10-18T11:34:51.431Z,99460.08
2018-10-18T11:37:19.901Z,99459.90
2018-10-18T11:39:48.381Z,99455.64
2018-10-18T11:42:16.863Z,99456.46
2018-10-18T11:44:45.407Z,99458.11
2018-10-18T11:47:13.905Z,99453.97
2018-10-18T11:49:42.487Z,99449.06
2018-10-18T11:52:11.177Z,99451.33
2018-10-18T11:54:39.488Z,99447.55
2018-10-18T11:57:07.955Z,99448.08
2018-10-18T11:59:36.455Z,99439.19
2018-10-18T12:02:05.843Z,99434.64
2018-10-18T12:04:34.474Z,99440.74
2018-10-18T12:07:03.020Z,99437.85
2018-10-18T12:09:31.451Z,99434.35
2018-10-18T12:11:59.909Z,99435.63
2018-10-18T12:14:28.968Z,99434.52
2018-10-18T12:16:57.485Z,99427.22
2018-10-18T12:19:26.004Z,99420.07
2018-10-18T12:21:54.844Z,99426.09
2018-10-18T12:24:23.308Z,99422.09
2018-10-18T12:26:51.971Z,99423.20
2018-10-18T12:29:20.536Z,99424.41
2018-10-18T12:31:48.924Z,99424.16
2018-10-18T12:34:17.420Z,99424.30
2018-10-18T12:36:46.537Z,99422.41
2018-10-18T12:39:15.823Z,99419.94
2018-10-18T12:41:44.401Z,99406.48
2018-10-18T12:44:14.638Z,99421.25
2018-10-18T12:46:43.106Z,99421.04
2018-10-18T12:49:12.127Z,99419.17
2018-10-18T12:51:41.174Z,99412.61
2018-10-18T12:54:09.716Z,99407.00
2018-10-18T12:59:37.139Z,99415.77
2018-10-18T13:02:06.047Z,99407.16
2018-10-18T13:04:35.448Z,99403.48
2018-10-18T13:07:04.286Z,99416.75
2018-10-18T13:09:32.834Z,99413.59
2018-10-18T13:12:01.360Z,99409.42
2018-10-18T13:14:30.454Z,99406.94
2018-10-18T13:16:59.045Z,99396.67
2018-10-18T13:19:27.636Z,99399.97
2018-10-18T13:21:56.105Z,99393.86
2018-10-18T13:24:24.581Z,99408.34
2018-10-18T13:26:53.118Z,99399.00
2018-10-18T13:29:21.632Z,99407.59
2018-10-18T13:31:50.700Z,99378.11
2018-10-18T13:34:19.127Z,99409.92
2018-10-18T13:36:47.615Z,99406.31
2018-10-18T13:39:16.596Z,99411.02
2018-10-18T13:41:45.055Z,99408.66
2018-10-18T13:44:14.101Z,99407.30
2018-10-18T13:46:43.296Z,99413.23
2018-10-18T13:49:11.853Z,99410.14
2018-10-18T13:51:40.376Z,99412.44
2018-10-18T13:54:08.998Z,99408.14
2018-10-18T13:56:37.602Z,99412.02
2018-10-18T13:59:10.577Z,99412.48
2018-10-18T14:01:39.069Z,99416.42
2018-10-18T14:04:07.510Z,99412.23
2018-10-18T14:06:35.974Z,99411.27
2018-10-18T14:09:05.292Z,99409.97
2018-10-18T14:11:33.912Z,99409.25
2018-10-18T14:14:02.601Z,99406.80
2018-10-18T14:16:31.096Z,99407.68
2018-10-18T14:18:59.561Z,99402.47
2018-10-18T14:21:28.100Z,99409.41
2018-10-18T14:23:56.590Z,99408.81
2018-10-18T14:26:25.178Z,99409.45
2018-10-18T14:28:54.079Z,99406.16
2018-10-18T14:31:22.657Z,99407.96
2018-10-18T14:33:51.216Z,99405.77
2018-10-18T14:36:19.752Z,99400.13
2018-10-18T14:38:48.357Z,99393.95
2018-10-18T14:41:16.800Z,99407.07
2018-10-18T14:43:45.319Z,99402.19
2018-10-18T14:46:14.105Z,99411.76
2018-10-18T14:48:42.545Z,99409.42
2018-10-18T14:51:11.093Z,99403.91
2018-10-18T14:53:39.567Z,99406.73
2018-10-18T14:56:08.135Z,99406.34
2018-10-18T14:58:36.570Z,99416.14
2018-10-18T15:01:05.255Z,99376.64
2018-10-18T15:03:36.799Z,99426.96
2018-10-18T15:06:05.327Z,99411.33
2018-10-18T15:08:34.453Z,99420.67
2018-10-18T15:11:03.522Z,99423.84
2018-10-18T15:13:31.951Z,99423.19
2018-10-18T15:16:00.432Z,99428.16
2018-10-18T15:18:28.913Z,99437.31
2018-10-18T15:20:57.912Z,99438.69
2018-10-18T15:23:26.534Z,99432.48
2018-10-18T15:25:55.417Z,99435.22
2018-10-18T15:28:24.163Z,99440.52
2018-10-18T15:30:52.784Z,99439.86
2018-10-18T15:33:21.244Z,99439.48
2018-10-18T15:35:50.652Z,99447.89
2018-10-18T15:38:19.287Z,99442.27
2018-10-18T15:40:47.747Z,99446.98
2018-10-18T15:43:16.948Z,99448.09
2018-10-18T15:45:46.299Z,99448.12
2018-10-18T15:48:15.748Z,99450.23
2018-10-18T15:50:44.489Z,99449.23
2018-10-18T15:53:14.200Z,99447.91
2018-10-18T15:55:43.181Z,99461.25
2018-10-18T15:58:11.899Z,99460.55
2018-10-18T16:00:40.432Z,99464.34
2018-10-18T16:03:08.997Z,99462.16
2018-10-18T16:05:37.459Z,99466.25
2018-10-18T16:08:06.272Z,99470.45
2018-10-18T16:10:35.192Z,99477.49
2018-10-18T16:13:03.774Z,99477.03
2018-10-18T16:15:32.528Z,99480.92
2018-10-18T16:18:01.925Z,99484.91
2018-10-18T16:20:30.469Z,99486.48
2018-10-18T16:22:59.165Z,99494.07
2018-10-18T16:25:28.347Z,99491.05
2018-10-18T16:27:56.803Z,99497.45
2018-10-18T16:30:25.376Z,99507.22
2018-10-18T16:32:53.967Z,99500.87
2018-10-18T16:35:22.504Z,99503.71
2018-10-18T16:37:50.947Z,99506.40
2018-10-18T16:40:19.840Z,99515.66
2018-10-18T16:42:48.307Z,99523.90
2018-10-18T16:45:16.807Z,99524.41
2018-10-18T16:47:49.037Z,99523.39
2018-10-18T16:50:17.880Z,99525.25
2018-10-18T16:52:46.295Z,99527.75
2018-10-18T16:55:15.020Z,99531.45
2018-10-18T16:57:43.615Z,99525.70
2018-10-18T17:00:13.210Z,99531.11
2018-10-18T17:02:41.656Z,99528.58
2018-10-18T17:05:10.112Z,99528.40
2018-10-18T17:07:39.637Z,99526.89
2018-10-18T17:10:08.132Z,99527.54
2018-10-18T17:12:36.563Z,99530.55
2018-10-18T17:15:06.092Z,99417.53
2018-10-18T17:17:35.927Z,99535.89
2018-10-18T17:20:04.465Z,99534.70
2018-10-18T17:22:32.969Z,99539.59
2018-10-18T17:25:01.454Z,99541.59
2018-10-18T17:27:30.125Z,99547.92
2018-10-18T17:29:58.913Z,99542.27
2018-10-18T17:32:27.700Z,99539.89
2018-10-18T17:34:56.178Z,99547.59
2018-10-18T17:37:25.069Z,99542.89
2018-10-18T17:39:53.908Z,99549.39
2018-10-18T17:42:22.525Z,99546.70
2018-10-18T17:44:51.201Z,99549.03
2018-10-18T17:47:19.819Z,99549.55
2018-10-18T17:49:50.030Z,99553.09
2018-10-18T17:52:19.200Z,99553.88
2018-10-18T17:54:47.652Z,99550.53
2018-10-18T17:57:16.292Z,99561.89
2018-10-18T17:59:44.830Z,99557.17
2018-10-18T18:02:13.928Z,99560.47
2018-10-18T18:04:42.356Z,99560.17
2018-10-18T18:07:10.844Z,99559.13
2018-10-18T18:09:39.352Z,99562.15
2018-10-18T18:12:08.427Z,99569.70
2018-10-18T18:14:37.424Z,99562.06
2018-10-18T18:17:06.479Z,99566.27
2018-10-18T18:19:35.230Z,99540.52
2018-10-18T18:22:04.367Z,99564.67
2018-10-18T18:24:33.401Z,99572.19
2018-10-18T18:27:02.066Z,99576.47
2018-10-18T18:29:31.085Z,99578.66
2018-10-18T18:32:01.349Z,99582.83
2018-10-18T18:34:30.124Z,99584.13
2018-10-18T18:36:58.628Z,99588.58
2018-10-18T18:39:27.074Z,99588.40
2018-10-18T18:41:55.580Z,99592.74
2018-10-18T18:44:24.022Z,99594.18
2018-10-18T18:46:53.322Z,99592.55
2018-10-18T18:49:21.751Z,99596.44
2018-10-18T18:51:50.172Z,99603.31
2018-10-18T18:54:18.925Z,99598.77
2018-10-18T18:56:47.642Z,99590.75
2018-10-18T18:59:16.245Z,99595.19
2018-10-18T19:01:45.672Z,99594.70
2018-10-18T19:04:14.859Z,99601.97
2018-10-18T19:06:43.331Z,99603.02
2018-10-18T19:09:12.161Z,99602.30
2018-10-18T19:11:40.780Z,99609.47
2018-10-18T19:14:09.715Z,99604.31
2018-10-18T19:16:38.263Z,99601.92
2018-10-18T19:19:06.974Z,99611.81
2018-10-18T19:21:35.579Z,99608.66
2018-10-18T19:24:04.202Z,99611.22
2018-10-18T19:26:32.681Z,99611.42
2018-10-18T19:29:01.310Z,99613.98
2018-10-18T19:31:30.662Z,99611.65
2018-10-18T19:33:59.226Z,99612.95
2018-10-18T19:36:27.784Z,99621.39
2018-10-18T19:38:56.227Z,99617.52
2018-10-18T19:41:24.806Z,99618.52
2018-10-18T19:43:53.991Z,99619.46
2018-10-18T19:46:22.567Z,99625.88
2018-10-18T19:48:51.004Z,99625.94
2018-10-18T19:51:19.970Z,99621.05
2018-10-18T19:53:48.435Z,99621.31
2018-10-18T19:56:17.030Z,99619.75
2018-10-18T19:58:45.685Z,99625.43
2018-10-18T20:01:14.441Z,99627.04
2018-10-18T20:03:42.950Z,99626.97
2018-10-18T20:06:11.483Z,99630.73
2018-10-18T20:08:39.999Z,99627.38
2018-10-18T20:11:08.519Z,99623.62
2018-10-18T20:13:37.111Z,99627.59
2018-10-18T20:16:05.895Z,99626.08
2018-10-18T20:18:34.945Z,99626.42
2018-10-18T20:21:03.429Z,99630.36
2018-10-18T20:23:32.126Z,99630.59
2018-10-18T20:26:00.953Z,99630.02
2018-10-18T20:28:29.263Z,99629.91
2018-10-18T20:30:57.764Z,99631.99
2018-10-18T20:33:26.210Z,99633.19
2018-10-18T20:35:55.256Z,99636.71
2018-10-18T20:38:23.778Z,99634.77
2018-10-18T20:40:52.798Z,99634.41
2018-10-18T20:43:21.294Z,99641.86
2018-10-18T20:45:49.858Z,99644.59
2018-10-18T20:48:18.292Z,99645.70
2018-10-18T20:50:46.809Z,99649.65
2018-10-18T20:53:16.071Z,99646.80
2018-10-18T20:55:44.521Z,99648.05
2018-10-18T20:58:13.656Z,99656.81
2018-10-18T21:00:42.212Z,99657.95
2018-10-18T21:03:10.725Z,99659.28
2018-10-18T21:05:39.149Z,99659.59
2018-10-18T21:08:07.553Z,99657.01
2018-10-18T21:10:36.940Z,99662.69
2018-10-18T21:13:06.158Z,99666.16
2018-10-18T21:15:35.280Z,99664.89
2018-10-18T21:18:04.418Z,99662.36
2018-10-18T21:20:33.145Z,99660.16
2018-10-18T21:23:01.718Z,99657.95
2018-10-18T21:25:30.248Z,99654.45
2018-10-18T21:27:58.735Z,99652.66
2018-10-18T21:30:27.199Z,99654.20
2018-10-18T21:32:56.665Z,99645.86
2018-10-18T21:35:25.061Z,99651.06
2018-10-18T21:37:54.124Z,99652.72
2018-10-18T21:40:23.044Z,99656.33
2018-10-18T21:42:51.521Z,99657.91
2018-10-18T21:45:24.237Z,99653.92
2018-10-18T21:47:53.129Z,99653.70
2018-10-18T21:50:21.729Z,99657.34
2018-10-18T21:52:50.880Z,99654.77
2018-10-18T21:55:25.968Z,99654.37
2018-10-18T21:57:55.558Z,99664.19
2018-10-18T22:00:27.392Z,99661.36
2018-10-18T22:02:55.967Z,99660.41
2018-10-18T22:05:24.412Z,99663.69
2018-10-18T22:07:53.407Z,99660.75
2018-10-18T22:10:21.855Z,99661.91
2018-10-18T22:12:50.316Z,99666.46
2018-10-18T22:15:19.474Z,99669.06
2018-10-18T22:17:48.541Z,99674.64
2018-10-18T22:20:17.401Z,99671.05
2018-10-18T22:22:45.884Z,99662.45
2018-10-18T22:25:15.527Z,99658.95
2018-10-18T22:27:44.659Z,99653.20
2018-10-18T22:30:13.991Z,99648.86
2018-10-18T22:32:42.478Z,99651.56
2018-10-18T22:35:10.990Z,99643.85
2018-10-18T22:37:39.445Z,99649.80
2018-10-18T22:40:08.324Z,99647.58
2018-10-18T22:42:36.968Z,99657.14
2018-10-18T22:45:06.507Z,99661.77
2018-10-18T22:47:35.055Z,99668.22
2018-10-18T22:50:03.519Z,99667.78
2018-10-18T22:52:31.969Z,99667.02
2018-10-18T22:55:00.396Z,99662.80
2018-10-18T22:57:28.880Z,99660.98
2018-10-18T22:59:57.379Z,99665.36
2018-10-18T23:02:25.857Z,99669.83
2018-10-18T23:04:54.916Z,99663.24
2018-10-18T23:07:23.370Z,99654.25
2018-10-18T23:09:52.105Z,99660.02
2018-10-18T23:12:20.582Z,99665.77
2018-10-18T23:14:49.105Z,99656.08
2018-10-18T23:17:17.611Z,99657.59
2018-10-18T23:19:46.072Z,99661.45
2018-10-18T23:22:16.571Z,99656.02
2018-10-18T23:24:45.732Z,99650.17
2018-10-18T23:27:14.445Z,99656.78
2018-10-18T23:29:43.397Z,99647.80
2018-10-18T23:32:13.429Z,99644.06
2018-10-18T23:34:41.940Z,99650.61
2018-10-18T23:37:10.805Z,99650.43
2018-10-18T23:39:39.315Z,99655.75
2018-10-18T23:42:07.748Z,99659.39
2018-10-18T23:44:36.252Z,99659.27
2018-10-18T23:47:05.377Z,99663.53
2018-10-18T23:49:34.547Z,99653.66
2018-10-18T23:52:03.059Z,99655.73
2018-10-18T23:54:31.545Z,99655.36
2018-10-18T23:57:01.092Z,99651.02
2018-10-18T23:59:29.955Z,99645.90
